Time;durP1;ratioP1;P1;durP2;ratioP2;P2;SDS_P1;SDS_P2;PMS_P1;PMS_P2;Temp;Humidity;BMP_temperature;BMP_pressure;BME280_temperature;BME280_humidity;BME280_pressure;Samples;Min_cycle;Max_cycle;Signal;HPM_P1;HPM_P2
2023/08/29 00:00:17;;;;;;;4.47;3.10;;;;;;;;;;7367127;19;20010;-71
2023/08/29 00:02:42;;;;;;;7.40;3.42;;;;;;;;;;7366736;19;20459;-70
2023/08/29 00:05:09;;;;;;;6.47;3.40;;;;;;;;;;7366112;19;20031;-71
2023/08/29 00:07:35;;;;;;;4.63;3.10;;;;;;;;;;7389705;19;20078;-71
2023/08/29 00:10:01;;;;;;;5.45;3.20;;;;;;;;;;7367438;19;20014;-70
2023/08/29 00:12:26;;;;;;;4.43;3.00;;;;;;;;;;7366004;19;20577;-70
2023/08/29 00:14:52;;;;;;;4.95;3.20;;;;;;;;;;7365217;19;20121;-70
2023/08/29 00:17:17;;;;;;;5.10;2.80;;;;;;;;;;7367358;19;20006;-70
2023/08/29 00:19:43;;;;;;;5.43;3.17;;;;;;;;;;7388841;19;20038;-70
2023/08/29 00:22:08;;;;;;;5.18;2.75;;;;;;;;;;7366402;19;20104;-70
2023/08/29 00:24:33;;;;;;;8.52;3.00;;;;;;;;;;7363913;19;20015;-69
2023/08/29 00:26:58;;;;;;;4.32;2.92;;;;;;;;;;7365202;19;20074;-71
2023/08/29 00:29:26;;;;;;;7.70;3.10;;;;;;;;;;7365990;19;20024;-72
2023/08/29 00:31:51;;;;;;;4.32;3.10;;;;;;;;;;7366696;19;20021;-69
2023/08/29 00:34:17;;;;;;;7.05;2.83;;;;;;;;;;7385809;19;20006;-70
2023/08/29 00:36:42;;;;;;;7.38;3.67;;;;;;;;;;7365417;19;20043;-69
2023/08/29 00:39:07;;;;;;;4.82;3.05;;;;;;;;;;7366795;19;20147;-70
2023/08/29 00:41:33;;;;;;;6.47;3.42;;;;;;;;;;7367055;19;20007;-70
2023/08/29 00:43:58;;;;;;;6.55;3.22;;;;;;;;;;7365906;19;20006;-71
2023/08/29 00:46:24;;;;;;;5.72;3.33;;;;;;;;;;7387121;19;20423;-70
2023/08/29 00:48:50;;;;;;;5.53;3.30;;;;;;;;;;7364336;19;20010;-70
2023/08/29 00:51:17;;;;;;;9.90;3.58;;;;;;;;;;7367252;19;20014;-70
2023/08/29 00:53:43;;;;;;;5.78;3.50;;;;;;;;;;7375401;19;20441;-69
2023/08/29 00:56:09;;;;;;;6.65;3.40;;;;;;;;;;7372200;19;20019;-70
2023/08/29 00:58:36;;;;;;;6.07;3.67;;;;;;;;;;7392417;19;20084;-70
2023/08/29 01:01:02;;;;;;;6.10;3.65;;;;;;;;;;7364750;19;20011;-70
2023/08/29 01:03:27;;;;;;;5.65;3.58;;;;;;;;;;7365581;19;20045;-73
2023/08/29 01:05:52;;;;;;;7.60;3.67;;;;;;;;;;7365394;19;20014;-70
2023/08/29 01:08:18;;;;;;;6.38;3.90;;;;;;;;;;7365670;19;20016;-73
2023/08/29 01:11:25;;;;;;;5.50;3.78;;;;;;;;;;7386791;19;20007;-70
2023/08/29 01:14:08;;;;;;;6.97;3.92;;;;;;;;;;7260833;19;2004450;-70
2023/08/29 01:16:38;;;;;;;6.28;3.83;;;;;;;;;;7384562;19;20217;-70
2023/08/29 01:19:12;;;;;;;7.47;4.10;;;;;;;;;;7364631;19;20756;-70
2023/08/29 01:22:12;;;;;;;9.18;3.75;;;;;;;;;;7366290;19;20509;-70
2023/08/29 01:25:09;;;;;;;6.40;4.00;;;;;;;;;;7362374;19;20026;-70
2023/08/29 01:27:36;;;;;;;6.20;3.90;;;;;;;;;;7365160;19;20038;-69
2023/08/29 01:30:03;;;;;;;5.45;3.50;;;;;;;;;;7370438;19;20045;-70
2023/08/29 01:32:29;;;;;;;5.60;3.40;;;;;;;;;;7372470;19;20011;-69
2023/08/29 01:34:56;;;;;;;6.10;3.55;;;;;;;;;;7368686;19;20459;-70
2023/08/29 01:37:21;;;;;;;6.72;3.40;;;;;;;;;;7394388;19;20010;-70
2023/08/29 01:39:46;;;;;;;5.65;3.65;;;;;;;;;;7371778;19;20010;-69
2023/08/29 01:42:11;;;;;;;6.38;3.72;;;;;;;;;;7372120;19;20694;-70
2023/08/29 01:44:37;;;;;;;5.93;3.92;;;;;;;;;;7370594;19;20025;-70
2023/08/29 01:47:02;;;;;;;5.10;3.50;;;;;;;;;;7371874;19;20006;-70
2023/08/29 01:49:29;;;;;;;5.30;3.60;;;;;;;;;;7390072;19;20013;-70
2023/08/29 01:51:54;;;;;;;7.43;3.92;;;;;;;;;;7371220;19;20003;-70
2023/08/29 01:54:20;;;;;;;5.75;3.83;;;;;;;;;;7370702;19;20013;-71
2023/08/29 01:56:45;;;;;;;5.80;3.72;;;;;;;;;;7370388;19;20006;-71
2023/08/29 01:59:11;;;;;;;5.47;3.63;;;;;;;;;;7371944;19;20025;-70
2023/08/29 02:01:38;;;;;;;6.13;3.83;;;;;;;;;;7391198;19;20018;-70
2023/08/29 02:04:03;;;;;;;5.82;3.45;;;;;;;;;;7369751;19;20006;-70
2023/08/29 02:06:29;;;;;;;6.10;3.65;;;;;;;;;;7369646;19;20077;-69
2023/08/29 02:08:54;;;;;;;5.82;3.45;;;;;;;;;;7370741;19;20024;-69
2023/08/29 02:11:19;;;;;;;5.35;3.40;;;;;;;;;;7371087;19;20541;-70
2023/08/29 02:13:45;;;;;;;5.05;3.45;;;;;;;;;;7392391;19;20014;-70
2023/08/29 02:16:10;;;;;;;6.90;3.70;;;;;;;;;;7369439;19;20003;-69
2023/08/29 02:18:35;;;;;;;5.55;3.75;;;;;;;;;;7370716;19;20039;-70
2023/08/29 02:21:01;;;;;;;7.30;3.90;;;;;;;;;;7371001;19;20031;-71
2023/08/29 02:23:26;;;;;;;5.05;3.42;;;;;;;;;;7369616;19;20014;-71
2023/08/29 02:26:03;;;;;;;5.80;3.60;;;;;;;;;;7369039;19;20012;-69
2023/08/29 02:28:34;;;;;;;5.35;3.50;;;;;;;;;;7391056;19;20012;-71
2023/08/29 02:31:07;;;;;;;8.38;3.83;;;;;;;;;;7370515;19;20014;-71
2023/08/29 02:33:34;;;;;;;6.03;3.75;;;;;;;;;;7369891;19;20524;-70
2023/08/29 02:35:59;;;;;;;6.95;3.70;;;;;;;;;;7369270;19;20039;-69
2023/08/29 02:38:25;;;;;;;6.05;3.70;;;;;;;;;;7370570;19;20098;-69
2023/08/29 02:40:50;;;;;;;6.10;4.03;;;;;;;;;;7366876;19;20496;-70
2023/08/29 02:43:15;;;;;;;6.72;3.80;;;;;;;;;;7391749;19;20465;-71
2023/08/29 02:45:41;;;;;;;6.13;3.50;;;;;;;;;;7367771;19;20013;-70
2023/08/29 02:48:06;;;;;;;5.43;3.47;;;;;;;;;;7371146;19;20522;-70
2023/08/29 02:50:33;;;;;;;6.30;3.75;;;;;;;;;;7372305;19;20017;-70
2023/08/29 02:52:58;;;;;;;6.20;3.72;;;;;;;;;;7371072;19;20002;-71
2023/08/29 02:55:24;;;;;;;5.68;3.90;;;;;;;;;;7388273;19;20006;-70
2023/08/29 02:57:49;;;;;;;7.38;3.83;;;;;;;;;;7369370;19;20003;-69
2023/08/29 03:00:15;;;;;;;6.78;3.55;;;;;;;;;;7369880;19;20461;-70
2023/08/29 03:02:40;;;;;;;8.07;4.00;;;;;;;;;;7368289;19;20030;-71
2023/08/29 03:05:06;;;;;;;7.13;3.47;;;;;;;;;;7366728;19;20007;-70
2023/08/29 03:07:31;;;;;;;6.05;3.15;;;;;;;;;;7391940;19;20003;-69
2023/08/29 03:09:56;;;;;;;7.75;3.25;;;;;;;;;;7368176;19;20010;-70
2023/08/29 03:12:22;;;;;;;9.07;3.38;;;;;;;;;;7369233;19;20469;-71
2023/08/29 03:14:53;;;;;;;6.35;3.92;;;;;;;;;;7368436;19;20006;-70
2023/08/29 03:17:18;;;;;;;7.88;3.55;;;;;;;;;;7369598;19;20003;-70
2023/08/29 03:19:44;;;;;;;6.00;3.38;;;;;;;;;;7391797;19;20006;-69
2023/08/29 03:22:09;;;;;;;6.47;3.58;;;;;;;;;;7368671;19;20001;-70
2023/08/29 03:24:34;;;;;;;5.60;3.60;;;;;;;;;;7365841;19;20007;-69
2023/08/29 03:26:59;;;;;;;6.10;3.53;;;;;;;;;;7367921;19;20006;-69
2023/08/29 03:29:25;;;;;;;6.80;3.75;;;;;;;;;;7368168;19;20003;-70
2023/08/29 03:31:50;;;;;;;9.68;4.00;;;;;;;;;;7368710;19;19999;-70
2023/08/29 03:34:15;;;;;;;4.97;3.20;;;;;;;;;;7389037;19;20353;-70
2023/08/29 03:36:41;;;;;;;5.80;3.55;;;;;;;;;;7366314;19;20133;-71
2023/08/29 03:39:06;;;;;;;8.05;4.07;;;;;;;;;;7367309;19;20481;-70
2023/08/29 03:41:31;;;;;;;5.53;3.50;;;;;;;;;;7368404;19;20421;-69
2023/08/29 03:43:57;;;;;;;6.80;3.30;;;;;;;;;;7368084;19;20003;-70
2023/08/29 03:46:22;;;;;;;6.93;3.55;;;;;;;;;;7389094;19;20002;-70
2023/08/29 03:48:47;;;;;;;5.55;3.65;;;;;;;;;;7366328;19;20014;-71
2023/08/29 03:51:13;;;;;;;7.32;3.83;;;;;;;;;;7366126;19;20010;-70
2023/08/29 03:53:38;;;;;;;5.97;3.45;;;;;;;;;;7365812;19;20010;-70
2023/08/29 03:56:05;;;;;;;6.68;3.85;;;;;;;;;;7366047;19;20002;-71
2023/08/29 03:58:31;;;;;;;5.57;3.35;;;;;;;;;;7389118;19;20009;-70
2023/08/29 04:00:57;;;;;;;6.63;3.72;;;;;;;;;;7367010;19;20011;-71
2023/08/29 04:03:22;;;;;;;6.85;2.97;;;;;;;;;;7368053;19;20017;-71
2023/08/29 04:05:48;;;;;;;5.60;3.70;;;;;;;;;;7366557;19;20009;-69
2023/08/29 04:08:13;;;;;;;6.43;3.30;;;;;;;;;;7367487;19;20014;-69
2023/08/29 04:10:40;;;;;;;6.10;3.60;;;;;;;;;;7388870;19;20014;-69
2023/08/29 04:13:06;;;;;;;5.22;3.47;;;;;;;;;;7366626;19;20139;-70
2023/08/29 04:15:34;;;;;;;5.70;3.72;;;;;;;;;;7365813;19;20380;-70
2023/08/29 04:18:03;;;;;;;8.13;4.35;;;;;;;;;;7369712;19;20015;-71
2023/08/29 04:20:29;;;;;;;6.13;3.63;;;;;;;;;;7367510;19;20506;-70
2023/08/29 04:22:55;;;;;;;5.95;4.15;;;;;;;;;;7367228;19;20066;-71
2023/08/29 04:25:21;;;;;;;7.03;4.20;;;;;;;;;;7386743;19;20044;-70
2023/08/29 04:27:48;;;;;;;5.10;3.67;;;;;;;;;;7366594;19;20018;-70
2023/08/29 04:30:13;;;;;;;7.05;4.13;;;;;;;;;;7367173;19;20010;-69
2023/08/29 04:32:38;;;;;;;6.50;4.05;;;;;;;;;;7366405;19;20488;-71
2023/08/29 04:35:06;;;;;;;6.35;4.07;;;;;;;;;;7364222;19;20007;-70
2023/08/29 04:37:32;;;;;;;7.63;3.95;;;;;;;;;;7388826;19;20010;-71
2023/08/29 04:39:57;;;;;;;5.90;3.70;;;;;;;;;;7366386;19;20014;-70
2023/08/29 04:42:22;;;;;;;7.18;3.45;;;;;;;;;;7366491;19;20089;-69
2023/08/29 04:44:48;;;;;;;4.85;3.30;;;;;;;;;;7365531;19;20007;-70
2023/08/29 04:47:13;;;;;;;6.68;3.80;;;;;;;;;;7366646;19;20007;-70
2023/08/29 04:49:38;;;;;;;5.80;3.63;;;;;;;;;;7386799;19;20010;-70
2023/08/29 04:52:04;;;;;;;5.43;3.63;;;;;;;;;;7365529;19;20036;-70
2023/08/29 04:54:29;;;;;;;6.55;3.70;;;;;;;;;;7361884;19;20450;-70
2023/08/29 04:56:55;;;;;;;8.65;4.38;;;;;;;;;;7363986;19;20037;-70
2023/08/29 04:59:20;;;;;;;13.20;3.90;;;;;;;;;;7365901;19;20040;-69
2023/08/29 05:01:45;;;;;;;6.28;3.50;;;;;;;;;;7392716;19;20072;-69
2023/08/29 05:04:12;;;;;;;8.40;3.60;;;;;;;;;;7368355;19;20132;-70
2023/08/29 05:06:38;;;;;;;10.93;4.13;;;;;;;;;;7373674;19;20021;-69
2023/08/29 05:09:06;;;;;;;11.23;4.05;;;;;;;;;;7372067;19;20484;-71
2023/08/29 05:11:32;;;;;;;9.88;3.90;;;;;;;;;;7373600;19;20002;-70
2023/08/29 05:13:58;;;;;;;7.30;3.60;;;;;;;;;;7372177;19;20548;-70
2023/08/29 05:16:23;;;;;;;7.22;4.50;;;;;;;;;;7393539;19;20003;-70
2023/08/29 05:18:48;;;;;;;7.03;3.67;;;;;;;;;;7372367;19;20014;-70
2023/08/29 05:21:14;;;;;;;5.85;3.83;;;;;;;;;;7372868;19;20031;-69
2023/08/29 05:23:39;;;;;;;5.70;3.78;;;;;;;;;;7371907;19;20014;-70
2023/08/29 05:26:04;;;;;;;10.00;4.10;;;;;;;;;;7371476;19;20003;-69
2023/08/29 05:28:30;;;;;;;6.18;3.70;;;;;;;;;;7394522;19;20003;-70
2023/08/29 05:30:55;;;;;;;6.30;3.45;;;;;;;;;;7372658;19;20054;-71
2023/08/29 05:33:20;;;;;;;7.18;3.67;;;;;;;;;;7372514;19;20127;-73
2023/08/29 05:35:46;;;;;;;5.72;3.58;;;;;;;;;;7371555;19;20006;-70
2023/08/29 05:38:11;;;;;;;7.97;4.15;;;;;;;;;;7373098;19;20014;-70
2023/08/29 05:40:36;;;;;;;8.98;4.20;;;;;;;;;;7394623;19;20026;-72
2023/08/29 05:43:01;;;;;;;8.85;3.92;;;;;;;;;;7371476;19;20010;-70
2023/08/29 05:45:27;;;;;;;7.65;3.75;;;;;;;;;;7370388;19;20021;-69
2023/08/29 05:47:52;;;;;;;10.13;4.03;;;;;;;;;;7372803;19;20113;-69
2023/08/29 05:50:18;;;;;;;8.65;4.15;;;;;;;;;;7374714;19;20011;-69
2023/08/29 05:52:44;;;;;;;9.27;3.63;;;;;;;;;;7394630;19;20007;-70
2023/08/29 05:55:09;;;;;;;8.65;3.80;;;;;;;;;;7368685;19;20021;-70
2023/08/29 05:57:34;;;;;;;5.85;3.60;;;;;;;;;;7372716;19;20425;-70
2023/08/29 06:00:00;;;;;;;6.93;3.72;;;;;;;;;;7372761;19;20078;-71
2023/08/29 06:02:26;;;;;;;5.93;3.30;;;;;;;;;;7371190;19;19999;-70
2023/08/29 06:04:51;;;;;;;7.60;3.78;;;;;;;;;;7369885;19;20078;-70
2023/08/29 06:07:17;;;;;;;9.25;3.70;;;;;;;;;;7393448;19;19998;-69
2023/08/29 06:09:42;;;;;;;11.25;3.28;;;;;;;;;;7371008;19;20026;-70
2023/08/29 06:12:07;;;;;;;7.93;3.75;;;;;;;;;;7371237;19;20008;-69
2023/08/29 06:14:33;;;;;;;7.18;3.60;;;;;;;;;;7370877;19;20483;-69
2023/08/29 06:16:58;;;;;;;5.53;3.05;;;;;;;;;;7370468;19;19995;-71
2023/08/29 06:19:24;;;;;;;4.95;3.03;;;;;;;;;;7393481;19;19998;-70
2023/08/29 06:21:49;;;;;;;9.05;3.58;;;;;;;;;;7370325;19;20006;-72
2023/08/29 06:24:14;;;;;;;5.03;3.30;;;;;;;;;;7369438;19;20010;-71
2023/08/29 06:26:40;;;;;;;5.68;2.88;;;;;;;;;;7370320;19;20014;-71
2023/08/29 06:29:05;;;;;;;5.82;3.10;;;;;;;;;;7369895;19;20016;-70
2023/08/29 06:31:31;;;;;;;6.15;3.33;;;;;;;;;;7392942;19;20324;-70
2023/08/29 06:33:56;;;;;;;6.97;3.45;;;;;;;;;;7368689;19;20464;-70
2023/08/29 06:36:22;;;;;;;5.85;3.20;;;;;;;;;;7369516;19;19998;-70
2023/08/29 06:38:48;;;;;;;6.03;2.95;;;;;;;;;;7371841;19;20377;-70
2023/08/29 06:41:13;;;;;;;7.18;3.20;;;;;;;;;;7371151;19;20007;-70
2023/08/29 06:43:38;;;;;;;5.93;3.42;;;;;;;;;;7392659;19;20664;-70
2023/08/29 06:46:04;;;;;;;12.65;3.78;;;;;;;;;;7368826;19;20120;-70
2023/08/29 06:48:29;;;;;;;8.63;3.28;;;;;;;;;;7368989;19;20005;-70
2023/08/29 06:50:54;;;;;;;6.32;3.03;;;;;;;;;;7368783;19;20452;-76
2023/08/29 06:53:20;;;;;;;6.53;3.38;;;;;;;;;;7370044;19;20570;-71
2023/08/29 06:55:46;;;;;;;7.68;3.30;;;;;;;;;;7390955;19;20012;-70
2023/08/29 06:58:12;;;;;;;7.13;3.40;;;;;;;;;;7369848;19;20633;-70
2023/08/29 07:00:37;;;;;;;8.38;2.90;;;;;;;;;;7370485;19;19998;-69
2023/08/29 07:03:04;;;;;;;7.10;2.97;;;;;;;;;;7368448;19;20006;-70
2023/08/29 07:05:29;;;;;;;9.07;3.30;;;;;;;;;;7367616;19;19998;-69
2023/08/29 07:07:55;;;;;;;4.97;3.08;;;;;;;;;;7369447;19;20003;-70
2023/08/29 07:10:21;;;;;;;8.55;3.25;;;;;;;;;;7390727;19;19994;-69
2023/08/29 07:12:48;;;;;;;6.35;2.80;;;;;;;;;;7370133;19;20010;-70
2023/08/29 07:15:14;;;;;;;6.82;3.20;;;;;;;;;;7369903;19;20415;-69
2023/08/29 07:17:39;;;;;;;9.45;3.15;;;;;;;;;;7370474;19;20030;-70
2023/08/29 07:20:11;;;;;;;6.78;3.38;;;;;;;;;;7368884;19;20017;-70
2023/08/29 07:22:38;;;;;;;6.75;2.95;;;;;;;;;;7391306;19;20378;-69
2023/08/29 07:25:04;;;;;;;6.07;2.85;;;;;;;;;;7366764;19;20023;-70
2023/08/29 07:27:32;;;;;;;10.45;3.20;;;;;;;;;;7368396;19;20010;-69
2023/08/29 07:29:57;;;;;;;5.57;3.30;;;;;;;;;;7368411;19;20033;-70
2023/08/29 07:32:23;;;;;;;6.30;3.00;;;;;;;;;;7369767;19;20077;-70
2023/08/29 07:34:48;;;;;;;5.70;3.15;;;;;;;;;;7366127;19;19998;-70
2023/08/29 07:37:14;;;;;;;5.40;2.83;;;;;;;;;;7390860;19;20010;-70
2023/08/29 07:39:39;;;;;;;8.20;4.03;;;;;;;;;;7369608;19;20015;-70
2023/08/29 07:42:05;;;;;;;5.18;2.97;;;;;;;;;;7369234;19;20010;-70
2023/08/29 07:44:30;;;;;;;9.55;2.97;;;;;;;;;;7366922;19;20015;-70
2023/08/29 07:46:56;;;;;;;6.10;3.05;;;;;;;;;;7361895;19;20659;-70
2023/08/29 07:49:21;;;;;;;7.07;3.10;;;;;;;;;;7389245;19;20002;-70
2023/08/29 07:51:50;;;;;;;5.35;2.63;;;;;;;;;;7367918;19;20006;-70
2023/08/29 07:54:15;;;;;;;5.15;2.95;;;;;;;;;;7367191;19;20399;-70
2023/08/29 07:56:41;;;;;;;4.72;2.90;;;;;;;;;;7366518;19;20010;-70
2023/08/29 07:59:06;;;;;;;8.57;2.90;;;;;;;;;;7368150;19;19999;-70
2023/08/29 08:01:32;;;;;;;5.72;2.70;;;;;;;;;;7388639;19;19999;-70
2023/08/29 08:03:57;;;;;;;6.22;2.63;;;;;;;;;;7366899;19;20011;-70
2023/08/29 08:06:22;;;;;;;5.00;2.50;;;;;;;;;;7366958;19;20018;-70
2023/08/29 08:08:48;;;;;;;5.43;3.05;;;;;;;;;;7366981;19;20023;-70
2023/08/29 08:11:13;;;;;;;4.93;2.50;;;;;;;;;;7368286;19;20464;-70
2023/08/29 08:13:39;;;;;;;6.30;2.72;;;;;;;;;;7389247;19;20775;-70
2023/08/29 08:16:04;;;;;;;5.63;2.72;;;;;;;;;;7366262;19;20026;-70
2023/08/29 08:18:30;;;;;;;6.50;2.35;;;;;;;;;;7367962;19;20078;-70
2023/08/29 08:20:55;;;;;;;3.20;2.20;;;;;;;;;;7366431;19;20022;-70
2023/08/29 08:23:20;;;;;;;4.68;2.60;;;;;;;;;;7366308;19;20029;-70
2023/08/29 08:25:46;;;;;;;5.97;2.80;;;;;;;;;;7388742;19;20070;-70
2023/08/29 08:28:13;;;;;;;6.30;2.90;;;;;;;;;;7367192;19;20073;-70
2023/08/29 08:30:38;;;;;;;4.32;2.70;;;;;;;;;;7367014;19;20665;-70
2023/08/29 08:33:05;;;;;;;4.45;2.88;;;;;;;;;;7367701;19;20028;-70
2023/08/29 08:35:30;;;;;;;5.47;2.83;;;;;;;;;;7364254;19;20014;-70
2023/08/29 08:37:55;;;;;;;4.97;2.70;;;;;;;;;;7367350;19;20003;-70
2023/08/29 08:40:21;;;;;;;7.03;3.00;;;;;;;;;;7387586;19;20002;-70
2023/08/29 08:42:46;;;;;;;7.80;3.13;;;;;;;;;;7366539;19;20010;-70
2023/08/29 08:45:13;;;;;;;7.70;3.55;;;;;;;;;;7364693;19;20023;-70
2023/08/29 08:47:39;;;;;;;5.30;2.70;;;;;;;;;;7365199;19;20534;-74
2023/08/29 08:50:05;;;;;;;6.15;3.00;;;;;;;;;;7366191;19;20017;-70
2023/08/29 08:52:33;;;;;;;5.55;3.00;;;;;;;;;;7388876;19;20002;-70
2023/08/29 08:54:58;;;;;;;8.48;3.40;;;;;;;;;;7363191;19;20010;-69
2023/08/29 08:57:25;;;;;;;7.47;3.50;;;;;;;;;;7366074;19;20511;-69
2023/08/29 08:59:50;;;;;;;4.70;2.95;;;;;;;;;;7366790;19;20010;-69
2023/08/29 09:02:17;;;;;;;5.38;2.67;;;;;;;;;;7365079;19;20723;-70
2023/08/29 09:04:43;;;;;;;4.85;2.70;;;;;;;;;;7385744;19;20126;-70
2023/08/29 09:07:08;;;;;;;5.55;2.50;;;;;;;;;;7368087;19;20014;-70
2023/08/29 09:09:34;;;;;;;4.45;2.50;;;;;;;;;;7368972;19;20547;-69
2023/08/29 09:11:59;;;;;;;6.03;2.80;;;;;;;;;;7369129;19;20018;-70
2023/08/29 09:14:25;;;;;;;5.43;3.17;;;;;;;;;;7366619;19;20018;-70
2023/08/29 09:16:55;;;;;;;5.68;2.78;;;;;;;;;;7366798;19;20017;-70
2023/08/29 09:19:22;;;;;;;5.30;2.88;;;;;;;;;;7388291;19;20020;-70
2023/08/29 09:21:48;;;;;;;5.85;3.20;;;;;;;;;;7366077;19;20002;-70
2023/08/29 09:24:13;;;;;;;6.60;3.25;;;;;;;;;;7366321;19;20019;-70
2023/08/29 09:26:40;;;;;;;6.85;2.92;;;;;;;;;;7365731;19;20010;-70
2023/08/29 09:29:24;;;;;;;8.02;2.58;;;;;;;;;;7365127;19;20003;-70
2023/08/29 09:31:50;;;;;;;6.70;2.63;;;;;;;;;;7365988;19;20086;-70
2023/08/29 09:34:28;;;;;;;4.55;2.70;;;;;;;;;;7386060;19;20016;-70
2023/08/29 09:36:54;;;;;;;4.45;2.53;;;;;;;;;;7365624;19;20014;-70
2023/08/29 09:39:21;;;;;;;4.20;2.50;;;;;;;;;;7365507;19;20014;-71
2023/08/29 09:42:01;;;;;;;5.63;2.72;;;;;;;;;;7364799;19;20102;-70
2023/08/29 09:44:28;;;;;;;5.07;2.92;;;;;;;;;;7363681;19;20010;-70
2023/08/29 09:46:53;;;;;;;5.70;3.00;;;;;;;;;;7365725;19;20520;-70
2023/08/29 09:49:18;;;;;;;7.75;3.10;;;;;;;;;;7384945;19;20070;-70
2023/08/29 09:51:44;;;;;;;7.03;3.20;;;;;;;;;;7370652;19;20007;-70
2023/08/29 09:54:10;;;;;;;6.28;3.30;;;;;;;;;;7370994;19;20010;-70
2023/08/29 09:56:38;;;;;;;6.10;3.10;;;;;;;;;;7371027;19;20009;-69
2023/08/29 09:59:11;;;;;;;6.05;2.90;;;;;;;;;;7372173;19;20018;-70
2023/08/29 10:01:40;;;;;;;6.30;2.97;;;;;;;;;;7393096;19;20005;-69
2023/08/29 10:04:06;;;;;;;6.93;2.80;;;;;;;;;;7370826;19;20019;-70
2023/08/29 10:06:33;;;;;;;4.97;2.83;;;;;;;;;;7371155;19;20010;-71
2023/08/29 10:09:00;;;;;;;4.80;2.83;;;;;;;;;;7370374;19;20011;-70
2023/08/29 10:11:26;;;;;;;5.07;3.00;;;;;;;;;;7371179;19;20447;-70
2023/08/29 10:13:53;;;;;;;4.50;2.60;;;;;;;;;;7370770;19;20007;-70
2023/08/29 10:16:19;;;;;;;4.55;2.55;;;;;;;;;;7392635;19;20078;-71
2023/08/29 10:18:46;;;;;;;6.55;2.80;;;;;;;;;;7370618;19;20013;-70
2023/08/29 10:21:12;;;;;;;4.80;2.53;;;;;;;;;;7371272;19;20026;-71
2023/08/29 10:23:38;;;;;;;5.55;2.53;;;;;;;;;;7370648;19;20015;-70
2023/08/29 10:26:05;;;;;;;4.72;2.40;;;;;;;;;;7370514;19;20011;-70
2023/08/29 10:28:31;;;;;;;6.63;2.63;;;;;;;;;;7392531;19;20025;-69
2023/08/29 10:31:00;;;;;;;3.70;2.30;;;;;;;;;;7370644;19;20006;-70
2023/08/29 10:33:25;;;;;;;4.75;2.35;;;;;;;;;;7370737;19;20010;-69
2023/08/29 10:35:51;;;;;;;4.65;2.55;;;;;;;;;;7370228;19;20040;-69
2023/08/29 10:38:18;;;;;;;7.47;2.80;;;;;;;;;;7371445;19;20014;-69
2023/08/29 10:40:44;;;;;;;6.68;2.95;;;;;;;;;;7392705;19;20014;-70
2023/08/29 10:43:20;;;;;;;5.50;2.75;;;;;;;;;;7370735;19;20023;-69
2023/08/29 10:45:51;;;;;;;3.10;2.00;;;;;;;;;;7369478;19;20071;-71
2023/08/29 10:48:22;;;;;;;4.40;2.40;;;;;;;;;;7370757;19;20436;-70
2023/08/29 10:51:10;;;;;;;4.40;2.20;;;;;;;;;;7370709;19;20461;-70
2023/08/29 10:53:47;;;;;;;4.38;2.10;;;;;;;;;;7368380;19;20035;-69
2023/08/29 10:56:13;;;;;;;5.28;2.33;;;;;;;;;;7370215;19;20010;-69
2023/08/29 10:58:41;;;;;;;4.70;2.10;;;;;;;;;;7391547;19;20516;-70
2023/08/29 11:01:15;;;;;;;5.90;2.28;;;;;;;;;;7367878;19;20074;-70
2023/08/29 11:03:48;;;;;;;7.15;2.50;;;;;;;;;;7368899;19;20006;-71
2023/08/29 11:06:15;;;;;;;7.97;2.03;;;;;;;;;;7370242;19;20003;-70
2023/08/29 11:08:40;;;;;;;4.05;2.08;;;;;;;;;;7369114;19;20029;-71
2023/08/29 11:11:15;;;;;;;4.00;1.60;;;;;;;;;;7371312;19;20539;-70
2023/08/29 11:13:55;;;;;;;3.38;1.90;;;;;;;;;;7390999;19;20520;-71
2023/08/29 11:16:20;;;;;;;5.50;1.90;;;;;;;;;;7368358;19;20066;-69
2023/08/29 11:18:47;;;;;;;19.88;3.63;;;;;;;;;;7369349;19;20010;-70
2023/08/29 11:21:15;;;;;;;10.15;2.10;;;;;;;;;;7369524;19;20015;-70
2023/08/29 11:23:43;;;;;;;3.03;1.80;;;;;;;;;;7368169;19;20021;-70
2023/08/29 11:26:09;;;;;;;2.50;1.65;;;;;;;;;;7367801;19;20017;-71
2023/08/29 11:28:39;;;;;;;5.47;2.10;;;;;;;;;;7390117;19;20096;-70
2023/08/29 11:31:05;;;;;;;3.63;1.88;;;;;;;;;;7369001;19;20014;-70
2023/08/29 11:33:33;;;;;;;3.60;1.83;;;;;;;;;;7368782;19;20361;-70
2023/08/29 11:36:00;;;;;;;6.00;2.42;;;;;;;;;;7367553;19;20100;-70
2023/08/29 11:38:30;;;;;;;3.00;1.73;;;;;;;;;;7368663;19;20097;-70
2023/08/29 11:40:58;;;;;;;3.90;1.73;;;;;;;;;;7368422;19;20015;-70
2023/08/29 11:43:24;;;;;;;4.78;2.08;;;;;;;;;;7389773;19;20022;-71
2023/08/29 11:46:01;;;;;;;3.97;2.00;;;;;;;;;;7365707;19;20007;-70
2023/08/29 11:48:28;;;;;;;3.17;1.90;;;;;;;;;;7367801;19;20006;-70
2023/08/29 11:50:55;;;;;;;4.72;1.88;;;;;;;;;;7368290;19;20039;-70
2023/08/29 11:53:28;;;;;;;6.32;2.10;;;;;;;;;;7367676;19;20010;-70
2023/08/29 11:55:54;;;;;;;4.07;1.88;;;;;;;;;;7365998;19;20406;-70
2023/08/29 11:58:19;;;;;;;3.92;1.70;;;;;;;;;;7389376;19;20011;-70
2023/08/29 12:00:48;;;;;;;3.97;1.80;;;;;;;;;;7368016;19;20075;-70
2023/08/29 12:03:13;;;;;;;2.30;1.80;;;;;;;;;;7368590;19;20045;-70
2023/08/29 12:05:40;;;;;;;5.07;1.50;;;;;;;;;;7364879;19;20595;-70
2023/08/29 12:08:06;;;;;;;3.33;1.30;;;;;;;;;;7368688;19;20024;-71
2023/08/29 12:10:31;;;;;;;3.75;1.50;;;;;;;;;;7390237;19;20552;-70
2023/08/29 12:13:10;;;;;;;4.18;1.60;;;;;;;;;;7366484;19;20350;-69
2023/08/29 12:15:35;;;;;;;1.98;1.30;;;;;;;;;;7365203;19;20042;-70
2023/08/29 12:18:00;;;;;;;2.00;1.27;;;;;;;;;;7366643;19;20472;-70
2023/08/29 12:20:27;;;;;;;4.18;1.40;;;;;;;;;;7368192;19;20014;-71
2023/08/29 12:22:53;;;;;;;2.45;1.50;;;;;;;;;;7367826;19;20007;-69
2023/08/29 12:25:18;;;;;;;4.88;1.40;;;;;;;;;;7386378;19;20035;-70
2023/08/29 12:27:44;;;;;;;4.47;1.45;;;;;;;;;;7366382;19;20011;-70
2023/08/29 12:30:16;;;;;;;5.28;1.42;;;;;;;;;;7366531;19;20003;-70
2023/08/29 12:32:45;;;;;;;4.57;1.42;;;;;;;;;;7367458;19;20011;-70
2023/08/29 12:35:11;;;;;;;3.70;1.50;;;;;;;;;;7366059;19;20010;-70
2023/08/29 12:37:37;;;;;;;3.90;1.73;;;;;;;;;;7389336;19;20341;-70
2023/08/29 12:40:04;;;;;;;3.17;1.60;;;;;;;;;;7367004;19;20031;-70
2023/08/29 12:42:30;;;;;;;3.13;1.30;;;;;;;;;;7367418;19;20006;-70
2023/08/29 12:44:56;;;;;;;3.58;1.70;;;;;;;;;;7365411;19;20030;-70
2023/08/29 12:47:21;;;;;;;3.88;1.50;;;;;;;;;;7368028;19;20019;-71
2023/08/29 12:49:47;;;;;;;2.30;1.40;;;;;;;;;;7379754;19;20337;-70
2023/08/29 12:52:14;;;;;;;2.42;1.58;;;;;;;;;;7376880;19;20811;-70
2023/08/29 12:54:42;;;;;;;2.92;1.55;;;;;;;;;;7364359;19;20603;-71
2023/08/29 12:57:07;;;;;;;1.80;1.38;;;;;;;;;;7367532;19;20011;-70
2023/08/29 12:59:32;;;;;;;3.30;1.80;;;;;;;;;;7367020;19;20010;-70
2023/08/29 13:01:57;;;;;;;3.05;1.48;;;;;;;;;;7365124;19;20082;-70
2023/08/29 13:04:23;;;;;;;2.72;1.50;;;;;;;;;;7386560;19;19999;-70
2023/08/29 13:06:49;;;;;;;7.72;1.70;;;;;;;;;;7365466;19;20409;-71
2023/08/29 13:09:14;;;;;;;3.70;1.67;;;;;;;;;;7365433;19;20055;-70
2023/08/29 13:11:39;;;;;;;5.22;1.70;;;;;;;;;;7364024;19;20011;-70
2023/08/29 13:14:04;;;;;;;3.75;1.65;;;;;;;;;;7365139;19;20064;-70
2023/08/29 13:16:34;;;;;;;3.22;1.60;;;;;;;;;;7387865;19;20023;-70
2023/08/29 13:19:00;;;;;;;2.88;1.55;;;;;;;;;;7374840;19;20687;-69
2023/08/29 13:21:26;;;;;;;3.55;1.80;;;;;;;;;;7376525;19;20042;-69
2023/08/29 13:23:51;;;;;;;3.38;1.63;;;;;;;;;;7375884;19;20672;-70
2023/08/29 13:26:18;;;;;;;2.03;1.42;;;;;;;;;;7370564;19;20577;-70
2023/08/29 13:28:43;;;;;;;2.88;1.60;;;;;;;;;;7395324;19;20044;-69
2023/08/29 13:31:09;;;;;;;3.05;1.60;;;;;;;;;;7373539;19;20037;-69
2023/08/29 13:33:34;;;;;;;7.45;1.90;;;;;;;;;;7373185;19;20007;-69
2023/08/29 13:36:00;;;;;;;2.22;1.50;;;;;;;;;;7371976;19;20014;-70
2023/08/29 13:38:26;;;;;;;2.22;1.63;;;;;;;;;;7373597;19;20404;-70
2023/08/29 13:40:51;;;;;;;4.05;1.52;;;;;;;;;;7371978;19;20006;-70
2023/08/29 13:43:17;;;;;;;2.67;1.65;;;;;;;;;;7394212;19;19999;-69
2023/08/29 13:45:43;;;;;;;2.75;1.35;;;;;;;;;;7370210;19;20027;-70
2023/08/29 13:48:08;;;;;;;5.13;2.33;;;;;;;;;;7371312;19;20006;-69
2023/08/29 13:50:34;;;;;;;1.92;1.50;;;;;;;;;;7371216;19;20014;-70
2023/08/29 13:52:59;;;;;;;2.33;1.60;;;;;;;;;;7372483;19;20006;-69
2023/08/29 13:55:26;;;;;;;2.50;1.55;;;;;;;;;;7390217;19;20023;-70
2023/08/29 13:57:51;;;;;;;3.55;1.75;;;;;;;;;;7371629;19;20365;-69
2023/08/29 14:00:17;;;;;;;3.33;1.70;;;;;;;;;;7371531;19;20033;-69
2023/08/29 14:02:43;;;;;;;4.38;1.80;;;;;;;;;;7369703;19;20007;-70
2023/08/29 14:05:08;;;;;;;2.53;1.70;;;;;;;;;;7369251;19;20015;-70
2023/08/29 14:07:33;;;;;;;3.00;1.70;;;;;;;;;;7393864;19;20356;-69
2023/08/29 14:09:59;;;;;;;5.13;1.70;;;;;;;;;;7369955;19;20095;-70
2023/08/29 14:12:24;;;;;;;2.55;1.60;;;;;;;;;;7372240;19;20010;-70
2023/08/29 14:14:50;;;;;;;2.80;1.50;;;;;;;;;;7370192;19;20007;-70
2023/08/29 14:17:15;;;;;;;1.50;1.30;;;;;;;;;;7371617;19;20636;-71
2023/08/29 14:19:41;;;;;;;2.55;1.55;;;;;;;;;;7394254;19;20117;-70
2023/08/29 14:22:06;;;;;;;2.13;1.52;;;;;;;;;;7371649;19;20013;-70
2023/08/29 14:24:31;;;;;;;2.40;1.60;;;;;;;;;;7369743;19;20027;-70
2023/08/29 14:26:57;;;;;;;4.05;1.50;;;;;;;;;;7371765;19;20006;-70
2023/08/29 14:29:23;;;;;;;3.72;1.48;;;;;;;;;;7371034;19;20014;-69
2023/08/29 14:31:48;;;;;;;2.88;1.52;;;;;;;;;;7374147;19;20018;-69
2023/08/29 14:34:14;;;;;;;2.90;1.50;;;;;;;;;;7392662;19;20524;-71
2023/08/29 14:36:40;;;;;;;1.80;1.38;;;;;;;;;;7370019;19;20006;-69
2023/08/29 14:39:05;;;;;;;2.70;1.50;;;;;;;;;;7370941;19;20356;-69